createdAt,value
2023-03-20T00:00:27.432Z,56.40
2023-03-20T00:01:27.442Z,62.60
2023-03-20T00:02:27.414Z,61.20
2023-03-20T00:03:27.461Z,58.40
2023-03-20T00:04:27.364Z,56.50
2023-03-20T00:05:27.286Z,63.30
2023-03-20T00:06:27.276Z,56.20
2023-03-20T00:07:27.243Z,56.20
2023-03-20T00:08:29.626Z,56.50
2023-03-20T00:09:27.186Z,60.00
2023-03-20T00:10:27.146Z,54.40
2023-03-20T00:11:27.140Z,59.60
2023-03-20T00:12:27.122Z,57.40
2023-03-20T00:13:27.084Z,54.40
2023-03-20T00:14:27.098Z,57.60
2023-03-20T00:15:27.019Z,54.00
2023-03-20T00:16:27.027Z,56.70
2023-03-20T00:17:26.990Z,53.70
2023-03-20T00:18:26.962Z,51.10
2023-03-20T00:19:26.921Z,60.00
2023-03-20T00:20:26.884Z,62.00
2023-03-20T00:21:26.862Z,53.60
2023-03-20T00:22:26.821Z,57.80
2023-03-20T00:23:26.820Z,56.40
2023-03-20T00:24:26.762Z,52.20
2023-03-20T00:25:26.743Z,52.80
2023-03-20T00:26:26.740Z,57.30
2023-03-20T00:27:26.681Z,54.50
2023-03-20T00:28:26.682Z,51.80
2023-03-20T00:29:26.741Z,56.00
2023-03-20T00:30:26.641Z,55.60
2023-03-20T00:31:26.676Z,56.50
2023-03-20T00:32:26.546Z,49.40
2023-03-20T00:33:26.562Z,53.00
2023-03-20T00:34:26.499Z,48.20
2023-03-20T00:35:26.486Z,52.00
2023-03-20T00:36:26.468Z,51.80
2023-03-20T00:37:26.444Z,51.00
2023-03-20T00:38:26.404Z,52.50
2023-03-20T00:39:26.372Z,49.30
2023-03-20T00:40:26.362Z,45.40
2023-03-20T00:41:26.341Z,49.20
2023-03-20T00:42:26.294Z,50.70
2023-03-20T00:43:26.282Z,51.80
2023-03-20T00:44:26.271Z,50.20
2023-03-20T00:45:26.245Z,48.10
2023-03-20T00:46:26.192Z,48.60
2023-03-20T00:47:26.187Z,47.90
2023-03-20T00:48:26.164Z,48.90
2023-03-20T00:49:26.116Z,49.60
2023-03-20T00:50:26.088Z,45.40
2023-03-20T00:51:26.044Z,48.50
2023-03-20T00:52:26.046Z,49.00
2023-03-20T00:53:26.003Z,49.80
2023-03-20T00:54:25.989Z,54.40
2023-03-20T00:55:25.944Z,53.90
2023-03-20T00:56:25.909Z,51.30
2023-03-20T00:57:25.903Z,50.50
2023-03-20T00:58:25.869Z,50.80
2023-03-20T00:59:25.842Z,54.50
2023-03-20T01:00:25.801Z,53.70
2023-03-20T01:01:25.783Z,52.90
2023-03-20T01:02:25.819Z,53.20
2023-03-20T01:03:25.720Z,56.80
2023-03-20T01:04:25.702Z,58.80
2023-03-20T01:05:25.697Z,54.80
2023-03-20T01:06:25.649Z,53.20
2023-03-20T01:07:25.647Z,54.60
2023-03-20T01:08:25.586Z,60.50
2023-03-20T01:09:25.585Z,56.30
2023-03-20T01:10:25.520Z,55.80
2023-03-20T01:11:25.520Z,49.90
2023-03-20T01:12:25.506Z,59.00
2023-03-20T01:13:25.464Z,57.00
2023-03-20T01:14:25.427Z,58.60
2023-03-20T01:15:25.401Z,57.20
2023-03-20T01:16:25.421Z,57.00
2023-03-20T01:17:25.309Z,59.60
2023-03-20T01:18:25.405Z,63.80
2023-03-20T01:19:25.312Z,61.00
2023-03-20T01:20:25.272Z,57.30
2023-03-20T01:21:25.249Z,62.70
2023-03-20T01:22:25.214Z,59.70
2023-03-20T01:23:25.251Z,61.90
2023-03-20T01:24:25.163Z,60.10
2023-03-20T01:25:25.130Z,56.10
2023-03-20T01:26:25.101Z,55.80
2023-03-20T01:27:25.111Z,62.30
2023-03-20T01:28:25.086Z,60.90
2023-03-20T01:29:25.058Z,56.40
2023-03-20T01:30:25.003Z,57.60
2023-03-20T01:31:25.041Z,57.50
2023-03-20T01:32:24.954Z,55.40
2023-03-20T01:33:25.064Z,54.00
2023-03-20T01:34:24.897Z,54.20
2023-03-20T01:35:24.857Z,57.00
2023-03-20T01:36:24.865Z,53.20
2023-03-20T01:37:24.805Z,53.40
2023-03-20T01:38:24.803Z,54.30
2023-03-20T01:39:24.788Z,54.80
2023-03-20T01:40:24.720Z,57.60
2023-03-20T01:41:24.702Z,55.00
2023-03-20T01:42:24.663Z,59.50
2023-03-20T01:43:24.646Z,53.60
2023-03-20T01:44:24.597Z,58.20
2023-03-20T01:45:24.601Z,54.30
2023-03-20T01:46:24.598Z,52.60
2023-03-20T01:47:24.549Z,55.50
2023-03-20T01:48:24.517Z,51.00
2023-03-20T01:49:24.473Z,56.30
2023-03-20T01:50:24.449Z,52.30
2023-03-20T01:51:24.403Z,53.50
2023-03-20T01:52:24.413Z,50.70
2023-03-20T01:53:24.380Z,54.50
2023-03-20T01:54:24.347Z,54.60
2023-03-20T01:55:24.329Z,53.30
2023-03-20T01:56:24.260Z,53.60
2023-03-20T01:57:24.261Z,51.50
2023-03-20T01:58:24.252Z,51.20
2023-03-20T01:59:24.200Z,57.30
2023-03-20T02:00:24.188Z,52.30
2023-03-20T02:01:24.226Z,51.00
2023-03-20T02:02:24.125Z,53.60
2023-03-20T02:03:24.078Z,52.10
2023-03-20T02:04:24.103Z,50.20
2023-03-20T02:05:24.026Z,50.70
2023-03-20T02:06:24.033Z,52.40
2023-03-20T02:07:23.980Z,51.40
2023-03-20T02:08:23.950Z,50.70
2023-03-20T02:09:23.913Z,48.00
2023-03-20T02:10:23.919Z,46.50
2023-03-20T02:11:23.917Z,49.00
2023-03-20T02:12:23.865Z,47.40
2023-03-20T02:13:23.813Z,49.10
2023-03-20T02:14:23.802Z,54.50
2023-03-20T02:15:23.773Z,47.80
2023-03-20T02:16:23.866Z,45.20
2023-03-20T02:17:23.709Z,49.30
2023-03-20T02:18:23.719Z,45.80
2023-03-20T02:19:23.654Z,42.60
2023-03-20T02:20:23.635Z,45.70
2023-03-20T02:21:23.636Z,46.90
2023-03-20T02:22:23.585Z,42.40
2023-03-20T02:23:23.570Z,39.60
2023-03-20T02:24:23.520Z,42.80
2023-03-20T02:25:23.506Z,38.50
2023-03-20T02:26:23.462Z,39.70
2023-03-20T02:27:23.443Z,43.10
2023-03-20T02:28:23.429Z,41.30
2023-03-20T02:29:23.378Z,41.70
2023-03-20T02:30:23.358Z,38.20
2023-03-20T02:31:23.360Z,41.20
2023-03-20T02:32:23.296Z,39.00
2023-03-20T02:33:23.295Z,40.70
2023-03-20T02:34:23.269Z,35.00
2023-03-20T02:35:23.218Z,33.40
2023-03-20T02:36:23.199Z,30.30
2023-03-20T02:37:23.143Z,29.00
2023-03-20T02:38:23.136Z,28.00
2023-03-20T02:39:23.142Z,27.70
2023-03-20T02:40:23.078Z,28.70
2023-03-20T02:41:23.101Z,24.80
2023-03-20T02:42:23.019Z,26.10
2023-03-20T02:43:23.002Z,27.60
2023-03-20T02:44:22.964Z,25.70
2023-03-20T02:45:22.950Z,24.60
2023-03-20T02:46:23.003Z,27.50
2023-03-20T02:47:22.897Z,25.00
2023-03-20T02:48:22.859Z,26.10
2023-03-20T02:49:22.802Z,24.10
2023-03-20T02:50:22.798Z,23.80
2023-03-20T02:51:22.767Z,26.90
2023-03-20T02:52:22.757Z,25.90
2023-03-20T02:53:22.735Z,24.90
2023-03-20T02:54:22.698Z,26.90
2023-03-20T02:55:22.667Z,28.20
2023-03-20T02:56:22.621Z,31.80
2023-03-20T02:57:22.609Z,29.30
2023-03-20T02:58:22.587Z,29.50
2023-03-20T02:59:22.560Z,30.40
2023-03-20T03:00:22.497Z,29.20
2023-03-20T03:01:22.505Z,30.30
2023-03-20T03:02:22.513Z,29.60
2023-03-20T03:03:22.438Z,34.20
2023-03-20T03:04:22.418Z,33.40
2023-03-20T03:05:22.392Z,36.90
2023-03-20T03:06:22.340Z,33.40
2023-03-20T03:07:22.322Z,34.10
2023-03-20T03:08:22.299Z,34.00
2023-03-20T03:09:22.267Z,34.10
2023-03-20T03:10:22.247Z,37.70
2023-03-20T03:11:22.245Z,37.90
2023-03-20T03:12:22.201Z,39.30
2023-03-20T03:13:22.154Z,37.70
2023-03-20T03:14:22.139Z,39.10
2023-03-20T03:15:22.122Z,40.50
2023-03-20T03:16:22.124Z,40.20
2023-03-20T03:17:22.052Z,42.20
2023-03-20T03:18:22.039Z,42.00
2023-03-20T03:19:22.005Z,36.80
2023-03-20T03:20:21.978Z,38.70
2023-03-20T03:21:21.960Z,40.00
2023-03-20T03:22:21.933Z,42.90
2023-03-20T03:23:21.893Z,38.00
2023-03-20T03:24:37.224Z,41.40
2023-03-20T03:25:21.830Z,39.30
2023-03-20T03:26:21.826Z,41.00
2023-03-20T03:27:21.792Z,39.60
2023-03-20T03:28:21.757Z,38.10
2023-03-20T03:29:21.739Z,38.60
2023-03-20T03:30:21.703Z,42.10
2023-03-20T03:31:21.952Z,37.20
2023-03-20T03:32:21.639Z,37.80
2023-03-20T03:33:21.622Z,34.80
2023-03-20T03:34:21.600Z,35.10
2023-03-20T03:35:21.572Z,35.90
2023-03-20T03:36:21.533Z,34.00
2023-03-20T03:37:21.495Z,36.70
2023-03-20T03:38:21.474Z,35.60
2023-03-20T03:39:21.437Z,34.60
2023-03-20T03:40:21.445Z,36.80
2023-03-20T03:41:21.442Z,34.60
2023-03-20T03:42:21.408Z,31.60
2023-03-20T03:43:21.372Z,32.90
2023-03-20T03:44:21.305Z,30.70
2023-03-20T03:45:21.283Z,30.70
2023-03-20T03:46:21.327Z,33.60
2023-03-20T03:47:21.241Z,33.60
2023-03-20T03:48:21.222Z,29.60
2023-03-20T03:49:21.175Z,29.60
2023-03-20T03:50:21.156Z,29.50
2023-03-20T03:51:21.117Z,32.00
2023-03-20T03:52:21.125Z,33.30
2023-03-20T03:53:21.089Z,32.00
2023-03-20T03:54:21.056Z,32.20
2023-03-20T03:55:21.025Z,31.10
2023-03-20T03:56:21.081Z,30.50
2023-03-20T03:57:20.957Z,28.20
2023-03-20T03:58:20.956Z,32.10
2023-03-20T03:59:20.904Z,28.50
2023-03-20T04:00:20.879Z,29.40
2023-03-20T04:01:20.845Z,29.10
2023-03-20T04:02:20.843Z,29.60
2023-03-20T04:03:20.805Z,30.40
2023-03-20T04:04:20.827Z,27.50
2023-03-20T04:05:20.735Z,27.00
2023-03-20T04:06:20.730Z,31.30
2023-03-20T04:07:20.705Z,27.50
2023-03-20T04:08:20.685Z,27.70
2023-03-20T04:09:20.666Z,25.90
2023-03-20T04:10:20.618Z,28.40
2023-03-20T04:11:20.587Z,31.70
2023-03-20T04:12:20.563Z,28.50
2023-03-20T04:13:20.536Z,26.40
2023-03-20T04:14:20.508Z,26.00
2023-03-20T04:15:20.467Z,27.90
2023-03-20T04:16:20.564Z,25.10
2023-03-20T04:17:20.407Z,22.40
2023-03-20T04:18:20.464Z,26.20
2023-03-20T04:19:20.369Z,24.00
2023-03-20T04:20:20.333Z,24.00
2023-03-20T04:21:20.362Z,27.30
2023-03-20T04:22:20.305Z,24.00
2023-03-20T04:23:20.263Z,26.20
2023-03-20T04:24:20.226Z,24.90
2023-03-20T04:25:20.211Z,21.80
2023-03-20T04:26:20.183Z,23.70
2023-03-20T04:27:20.153Z,26.10
2023-03-20T04:28:20.142Z,25.00
2023-03-20T04:29:20.118Z,26.00
2023-03-20T04:30:20.072Z,24.70
2023-03-20T04:31:20.088Z,23.30
2023-03-20T04:32:20.036Z,25.00
2023-03-20T04:33:20.008Z,22.30
2023-03-20T04:34:19.958Z,24.50
2023-03-20T04:35:19.927Z,22.30
2023-03-20T04:36:19.965Z,22.90
2023-03-20T04:37:19.873Z,25.00
2023-03-20T04:38:19.844Z,24.70
2023-03-20T04:39:19.810Z,20.80
2023-03-20T04:40:19.802Z,25.30
2023-03-20T04:41:19.763Z,25.00
2023-03-20T04:42:19.728Z,26.90
2023-03-20T04:43:19.712Z,24.30
2023-03-20T04:44:19.703Z,28.90
2023-03-20T04:45:19.663Z,27.60
2023-03-20T04:46:19.742Z,25.00
2023-03-20T04:47:19.611Z,26.10
2023-03-20T04:48:19.582Z,25.30
2023-03-20T04:49:19.537Z,24.90
2023-03-20T04:50:19.510Z,25.00
2023-03-20T04:51:19.489Z,26.50
2023-03-20T04:52:19.459Z,23.90
2023-03-20T04:53:19.425Z,25.90
2023-03-20T04:54:19.424Z,28.10
2023-03-20T04:55:19.385Z,28.00
2023-03-20T04:56:19.369Z,28.60
2023-03-20T04:57:19.327Z,25.70
2023-03-20T04:58:19.290Z,25.70
2023-03-20T04:59:19.266Z,25.80
2023-03-20T05:00:19.230Z,30.30
2023-03-20T05:01:19.252Z,24.00
2023-03-20T05:02:19.177Z,26.20
2023-03-20T05:03:21.157Z,26.30
2023-03-20T05:04:19.180Z,29.50
2023-03-20T05:05:19.121Z,29.50
2023-03-20T05:06:19.065Z,33.90
2023-03-20T05:07:19.072Z,33.60
2023-03-20T05:08:19.013Z,32.30
2023-03-20T05:09:18.998Z,33.70
2023-03-20T05:10:18.987Z,28.50
2023-03-20T05:11:18.957Z,32.90
2023-03-20T05:12:18.916Z,33.80
2023-03-20T05:13:18.888Z,34.80
2023-03-20T05:14:18.886Z,37.30
2023-03-20T05:15:18.818Z,36.70
2023-03-20T05:16:18.813Z,34.20
2023-03-20T05:17:18.782Z,39.80
2023-03-20T05:18:18.738Z,38.50
2023-03-20T05:19:18.704Z,38.40
2023-03-20T05:20:18.680Z,37.40
2023-03-20T05:21:18.646Z,35.50
2023-03-20T05:22:18.643Z,35.60
2023-03-20T05:23:18.621Z,33.50
2023-03-20T05:24:18.582Z,33.20
2023-03-20T05:25:18.581Z,35.20
2023-03-20T05:26:18.508Z,30.40
2023-03-20T05:27:18.491Z,35.20
2023-03-20T05:28:18.474Z,34.20
2023-03-20T05:29:18.451Z,35.40
2023-03-20T05:30:18.398Z,37.80
2023-03-20T05:31:18.421Z,36.30
2023-03-20T05:32:18.328Z,34.40
2023-03-20T05:33:18.337Z,33.90
2023-03-20T05:34:18.295Z,33.40
2023-03-20T05:35:18.261Z,31.20
2023-03-20T05:36:18.306Z,32.50
2023-03-20T05:37:18.221Z,32.20
2023-03-20T05:38:18.185Z,36.50
2023-03-20T05:39:18.195Z,30.80
2023-03-20T05:40:18.134Z,30.00
2023-03-20T05:41:18.125Z,31.30
2023-03-20T05:42:18.077Z,31.30
2023-03-20T05:43:18.047Z,31.00
2023-03-20T05:44:18.037Z,31.10
2023-03-20T05:45:17.983Z,27.10
2023-03-20T05:46:18.002Z,27.80
2023-03-20T05:47:17.938Z,31.40
2023-03-20T05:48:17.897Z,27.20
2023-03-20T05:49:17.878Z,30.70
2023-03-20T05:50:17.861Z,24.80
2023-03-20T05:51:17.825Z,26.70
2023-03-20T05:52:17.851Z,28.60
2023-03-20T05:53:17.778Z,24.50
2023-03-20T05:54:17.757Z,26.30
2023-03-20T05:55:17.754Z,24.60
2023-03-20T05:56:17.698Z,22.40
2023-03-20T05:57:17.702Z,25.30
2023-03-20T05:58:17.698Z,26.90
2023-03-20T05:59:17.598Z,25.50
2023-03-20T06:00:17.602Z,22.40
2023-03-20T06:01:17.541Z,21.40
2023-03-20T06:02:17.643Z,22.40
2023-03-20T06:03:17.572Z,22.20
2023-03-20T06:04:17.481Z,24.30
2023-03-20T06:05:17.459Z,21.00
2023-03-20T06:06:17.444Z,19.80
2023-03-20T06:07:17.409Z,22.30
2023-03-20T06:08:17.366Z,21.50
2023-03-20T06:09:17.337Z,20.40
2023-03-20T06:10:17.301Z,21.80
2023-03-20T06:11:17.312Z,19.10
2023-03-20T06:12:17.272Z,20.70
2023-03-20T06:13:17.221Z,19.30
2023-03-20T06:14:17.214Z,18.80
2023-03-20T06:15:17.178Z,22.90
2023-03-20T06:16:17.241Z,18.50
2023-03-20T06:17:17.120Z,19.60
2023-03-20T06:18:17.127Z,18.80
2023-03-20T06:19:17.087Z,19.60
2023-03-20T06:20:17.023Z,18.00
2023-03-20T06:21:17.024Z,19.00
2023-03-20T06:22:16.981Z,21.00
2023-03-20T06:23:16.947Z,20.30
2023-03-20T06:24:16.918Z,21.00
2023-03-20T06:25:16.909Z,21.60
2023-03-20T06:26:16.877Z,20.90
2023-03-20T06:27:16.866Z,21.10
2023-03-20T06:28:16.821Z,18.30
2023-03-20T06:29:16.792Z,18.10
2023-03-20T06:30:16.753Z,21.90
2023-03-20T06:31:16.766Z,23.10
2023-03-20T06:32:16.705Z,19.40
2023-03-20T06:33:16.702Z,18.20
2023-03-20T06:34:16.634Z,19.10
2023-03-20T06:35:16.617Z,19.50
2023-03-20T06:36:16.578Z,17.70
2023-03-20T06:37:16.558Z,18.60
2023-03-20T06:38:16.541Z,15.70
2023-03-20T06:39:16.524Z,16.70
2023-03-20T06:40:16.476Z,16.50
2023-03-20T06:41:27.851Z,19.70
2023-03-20T06:42:17.742Z,15.00
2023-03-20T06:43:16.502Z,17.70
2023-03-20T06:44:16.364Z,14.50
2023-03-20T06:45:16.334Z,17.40
2023-03-20T06:46:16.342Z,16.10
2023-03-20T06:47:16.309Z,20.00
2023-03-20T06:48:16.296Z,16.00
2023-03-20T06:49:16.989Z,15.60
2023-03-20T06:50:16.192Z,17.40
2023-03-20T06:51:16.197Z,15.10
2023-03-20T06:52:16.165Z,17.00
2023-03-20T06:53:16.122Z,16.20
2023-03-20T06:54:16.083Z,17.70
2023-03-20T06:55:16.056Z,16.80
2023-03-20T06:56:16.048Z,15.80
2023-03-20T06:57:16.015Z,17.20
2023-03-20T06:58:15.968Z,17.40
2023-03-20T06:59:15.958Z,17.00
2023-03-20T07:00:15.905Z,13.10
2023-03-20T07:01:15.874Z,15.90
2023-03-20T07:02:15.871Z,15.60
2023-03-20T07:03:15.839Z,15.80
2023-03-20T07:04:15.825Z,14.90
2023-03-20T07:05:15.788Z,18.10
2023-03-20T07:06:15.745Z,15.60
2023-03-20T07:07:15.746Z,17.70
2023-03-20T07:08:15.684Z,14.40
2023-03-20T07:09:15.674Z,17.30
2023-03-20T07:10:15.644Z,16.00
2023-03-20T07:11:15.613Z,16.00
2023-03-20T07:12:15.621Z,17.60
2023-03-20T07:13:15.564Z,16.00
2023-03-20T07:14:15.579Z,17.10
2023-03-20T07:15:15.545Z,14.50
2023-03-20T07:16:15.527Z,17.10
2023-03-20T07:17:15.453Z,15.00
2023-03-20T07:18:15.402Z,15.00
2023-03-20T07:19:15.390Z,14.40
2023-03-20T07:20:15.361Z,14.80
2023-03-20T07:21:15.337Z,14.60
2023-03-20T07:22:15.308Z,15.20
2023-03-20T07:23:15.282Z,14.80
2023-03-20T07:24:15.260Z,15.70
2023-03-20T07:25:15.237Z,15.20
2023-03-20T07:26:15.190Z,17.60
2023-03-20T07:27:15.171Z,14.00
2023-03-20T07:28:15.134Z,16.50
2023-03-20T07:29:15.120Z,16.60
2023-03-20T07:30:15.096Z,14.20
2023-03-20T07:31:15.095Z,18.20
2023-03-20T07:32:15.051Z,15.60
2023-03-20T07:33:15.071Z,14.50
2023-03-20T07:34:15.001Z,13.70
2023-03-20T07:35:14.973Z,14.60
2023-03-20T07:36:14.907Z,19.00
2023-03-20T07:37:14.903Z,15.40
2023-03-20T07:38:14.882Z,16.50
2023-03-20T07:39:14.836Z,14.80
2023-03-20T07:40:14.809Z,16.50
2023-03-20T07:41:14.783Z,15.90
2023-03-20T07:42:14.741Z,14.40
2023-03-20T07:43:14.728Z,17.00
2023-03-20T07:44:14.685Z,15.10
2023-03-20T07:45:14.675Z,14.80
2023-03-20T07:46:14.737Z,17.00
2023-03-20T07:47:14.623Z,18.10
2023-03-20T07:48:14.599Z,18.00
2023-03-20T07:49:14.537Z,16.20
2023-03-20T07:50:14.564Z,17.70
2023-03-20T07:51:14.509Z,14.60
2023-03-20T07:52:14.481Z,21.20
2023-03-20T07:53:14.675Z,16.50
2023-03-20T07:54:14.484Z,17.50
2023-03-20T07:55:16.638Z,15.90
2023-03-20T07:56:14.381Z,15.50
2023-03-20T07:57:14.347Z,14.50
2023-03-20T07:58:14.433Z,11.50
2023-03-20T07:59:14.282Z,13.60
2023-03-20T08:00:14.261Z,15.30
2023-03-20T08:01:14.239Z,14.10
2023-03-20T08:02:14.206Z,14.40
2023-03-20T08:03:14.448Z,15.10
2023-03-20T08:04:14.269Z,16.10
2023-03-20T08:05:14.121Z,15.60
2023-03-20T08:06:14.087Z,13.80
2023-03-20T08:07:14.055Z,13.30
2023-03-20T08:08:14.096Z,13.00
2023-03-20T08:09:14.007Z,14.80
2023-03-20T08:10:14.142Z,15.00
2023-03-20T08:11:13.956Z,16.40
2023-03-20T08:12:13.917Z,15.90
2023-03-20T08:13:13.933Z,15.90
2023-03-20T08:14:13.878Z,16.50
2023-03-20T08:15:13.858Z,14.10
2023-03-20T08:16:13.894Z,14.10
2023-03-20T08:17:17.020Z,15.90
2023-03-20T08:18:13.921Z,15.10
2023-03-20T08:19:13.774Z,15.10
2023-03-20T08:20:13.719Z,15.70
2023-03-20T08:21:13.696Z,16.60
2023-03-20T08:22:13.639Z,13.80
2023-03-20T08:23:13.614Z,16.50
2023-03-20T08:24:13.594Z,14.40
2023-03-20T08:25:13.556Z,16.60
2023-03-20T08:26:13.794Z,16.50
2023-03-20T08:27:13.511Z,15.10
2023-03-20T08:28:13.470Z,15.50
2023-03-20T08:29:13.466Z,14.00
2023-03-20T08:30:13.420Z,15.40
2023-03-20T08:31:13.473Z,14.30
2023-03-20T08:32:13.365Z,15.30
2023-03-20T08:33:13.385Z,13.70
2023-03-20T08:34:13.309Z,14.80
2023-03-20T08:35:26.020Z,13.60
2023-03-20T08:36:13.341Z,15.10
2023-03-20T08:37:13.256Z,13.10
2023-03-20T08:38:13.249Z,14.00
2023-03-20T08:39:13.169Z,12.70
2023-03-20T08:40:13.141Z,14.40
2023-03-20T08:41:13.118Z,15.40
2023-03-20T08:42:13.082Z,13.90
2023-03-20T08:43:13.098Z,14.50
2023-03-20T08:44:13.022Z,16.20
2023-03-20T08:45:13.035Z,14.00
2023-03-20T08:46:13.186Z,12.70
2023-03-20T08:47:12.941Z,12.40
2023-03-20T08:48:12.944Z,14.30
2023-03-20T08:49:12.947Z,13.00
2023-03-20T08:50:12.890Z,12.90
2023-03-20T08:51:12.895Z,13.30
2023-03-20T08:52:12.823Z,11.20
2023-03-20T08:53:12.807Z,11.60
2023-03-20T08:54:12.804Z,15.80
2023-03-20T08:55:12.735Z,13.90
2023-03-20T08:56:12.725Z,13.40
2023-03-20T08:57:12.678Z,11.60
2023-03-20T08:58:12.658Z,12.20
2023-03-20T08:59:12.618Z,12.90
2023-03-20T09:00:12.637Z,13.50
2023-03-20T09:01:12.662Z,11.40
2023-03-20T09:02:12.790Z,15.30
2023-03-20T09:03:12.541Z,10.10
2023-03-20T09:04:12.528Z,12.50
2023-03-20T09:05:12.474Z,11.70
2023-03-20T09:06:12.418Z,10.60
2023-03-20T09:07:12.434Z,13.30
2023-03-20T09:08:12.376Z,10.30
2023-03-20T09:09:12.366Z,12.70
2023-03-20T09:10:12.298Z,10.10
2023-03-20T09:11:12.279Z,10.80
2023-03-20T09:12:12.302Z,10.80
2023-03-20T09:13:26.202Z,13.40
2023-03-20T09:14:12.220Z,8.70
2023-03-20T09:15:12.194Z,9.50
2023-03-20T09:16:14.829Z,11.90
2023-03-20T09:17:12.138Z,10.80
2023-03-20T09:18:12.100Z,11.50
2023-03-20T09:19:12.076Z,9.90
2023-03-20T09:20:12.059Z,8.00
2023-03-20T09:21:12.003Z,12.70
2023-03-20T09:22:12.018Z,9.50
2023-03-20T09:23:12.014Z,8.60
2023-03-20T09:24:11.946Z,7.90
2023-03-20T09:25:11.917Z,8.70
2023-03-20T09:26:11.925Z,7.40
2023-03-20T09:27:11.874Z,9.20
2023-03-20T09:28:11.837Z,10.50
2023-03-20T09:29:11.840Z,11.70
2023-03-20T09:30:11.790Z,10.70
2023-03-20T09:31:11.834Z,9.80
2023-03-20T09:32:11.735Z,7.00
2023-03-20T09:33:11.814Z,9.60
2023-03-20T09:34:11.699Z,10.10
2023-03-20T09:35:11.622Z,10.40
2023-03-20T09:36:11.814Z,8.50
2023-03-20T09:37:11.582Z,8.60
2023-03-20T09:38:11.563Z,9.30
2023-03-20T09:39:11.601Z,8.10
2023-03-20T09:40:11.507Z,11.10
2023-03-20T09:41:11.464Z,9.50
2023-03-20T09:42:11.456Z,7.90
2023-03-20T09:43:11.427Z,10.30
2023-03-20T09:44:11.486Z,11.30
2023-03-20T09:45:11.386Z,8.00
2023-03-20T09:46:11.366Z,9.00
2023-03-20T09:47:19.760Z,9.20
2023-03-20T09:48:11.299Z,9.00
2023-03-20T09:49:11.265Z,8.50
2023-03-20T09:50:11.227Z,10.50
2023-03-20T09:51:11.207Z,7.80
2023-03-20T09:52:11.165Z,9.90
2023-03-20T09:53:11.164Z,9.70
2023-03-20T09:54:11.159Z,8.60
2023-03-20T09:55:11.143Z,10.70
2023-03-20T09:56:11.088Z,8.10
2023-03-20T09:57:11.061Z,7.60
2023-03-20T09:58:11.018Z,9.80
2023-03-20T09:59:10.978Z,7.70
2023-03-20T10:00:10.956Z,7.70
2023-03-20T10:01:10.945Z,10.10
2023-03-20T10:02:10.973Z,6.90
2023-03-20T10:03:10.916Z,7.30
2023-03-20T10:04:10.955Z,7.70
2023-03-20T10:05:10.818Z,8.40
2023-03-20T10:06:10.785Z,7.20
2023-03-20T10:07:10.768Z,6.90
2023-03-20T10:08:10.757Z,7.50
2023-03-20T10:09:10.712Z,7.30
2023-03-20T10:10:10.711Z,8.10
2023-03-20T10:11:10.700Z,6.40
2023-03-20T10:12:10.658Z,8.30
2023-03-20T10:13:10.604Z,5.90
2023-03-20T10:14:10.608Z,9.40
2023-03-20T10:15:10.565Z,7.50
2023-03-20T10:16:10.533Z,8.10
2023-03-20T10:17:10.476Z,8.60
2023-03-20T10:18:10.470Z,9.30
2023-03-20T10:19:10.452Z,7.60
2023-03-20T10:20:10.422Z,6.50
2023-03-20T10:21:10.376Z,7.30
2023-03-20T10:22:10.373Z,7.80
2023-03-20T10:23:10.338Z,6.00
2023-03-20T10:24:10.310Z,7.80
2023-03-20T10:25:10.303Z,6.20
2023-03-20T10:26:10.250Z,7.80
2023-03-20T10:27:10.243Z,6.20
2023-03-20T10:28:10.211Z,9.50
2023-03-20T10:29:10.169Z,9.00
2023-03-20T10:30:10.136Z,8.10
2023-03-20T10:31:10.176Z,7.80
2023-03-20T10:32:10.110Z,9.30
2023-03-20T10:33:10.150Z,6.40
2023-03-20T10:34:10.040Z,5.80
2023-03-20T10:35:10.014Z,8.00
2023-03-20T10:36:10.083Z,7.40
2023-03-20T10:37:10.084Z,7.00
2023-03-20T10:38:09.933Z,8.40
2023-03-20T10:39:09.896Z,8.20
2023-03-20T10:40:09.877Z,6.10
2023-03-20T10:41:09.855Z,8.20
2023-03-20T10:42:09.840Z,8.40
2023-03-20T10:43:09.820Z,9.10
2023-03-20T10:44:09.786Z,6.80
2023-03-20T10:45:10.121Z,9.30
2023-03-20T10:46:09.717Z,8.60
2023-03-20T10:47:09.795Z,5.30
2023-03-20T10:48:09.683Z,7.20
2023-03-20T10:49:09.652Z,8.70
2023-03-20T10:50:09.628Z,7.40
2023-03-20T10:51:09.585Z,8.80
2023-03-20T10:52:09.565Z,7.30
2023-03-20T10:53:09.562Z,7.30
2023-03-20T10:54:09.510Z,6.50
2023-03-20T10:55:09.493Z,6.60
2023-03-20T10:56:09.448Z,6.10
2023-03-20T10:57:09.425Z,8.80
2023-03-20T10:58:09.401Z,7.20
2023-03-20T10:59:09.402Z,9.40
2023-03-20T11:00:09.457Z,6.60
2023-03-20T11:01:09.386Z,8.30
2023-03-20T11:02:09.307Z,6.60
2023-03-20T11:03:09.265Z,4.80
2023-03-20T11:04:09.290Z,4.60
2023-03-20T11:05:09.483Z,5.70
2023-03-20T11:06:10.456Z,4.10
2023-03-20T11:07:09.160Z,5.60
2023-03-20T11:08:09.176Z,5.30
2023-03-20T11:09:09.106Z,5.40
2023-03-20T11:10:09.074Z,5.10
2023-03-20T11:11:09.055Z,4.90
2023-03-20T11:12:09.045Z,5.10
2023-03-20T11:13:09.000Z,5.00
2023-03-20T11:14:08.982Z,7.00
2023-03-20T11:15:08.985Z,4.40
2023-03-20T11:16:08.951Z,7.70
2023-03-20T11:17:08.883Z,6.00
2023-03-20T11:18:08.882Z,5.00
2023-03-20T11:19:08.859Z,5.90
2023-03-20T11:20:08.849Z,4.10
2023-03-20T11:21:08.789Z,4.40
2023-03-20T11:22:08.766Z,6.40
2023-03-20T11:23:08.734Z,4.00
2023-03-20T11:24:11.158Z,5.70
2023-03-20T11:25:08.681Z,4.50
2023-03-20T11:26:08.658Z,5.20
2023-03-20T11:27:08.685Z,4.80
2023-03-20T11:28:08.624Z,5.50
2023-03-20T11:29:08.638Z,7.00
2023-03-20T11:30:08.543Z,5.90
2023-03-20T11:31:08.541Z,7.70
2023-03-20T11:32:08.674Z,6.40
2023-03-20T11:33:08.496Z,5.60
2023-03-20T11:34:08.522Z,6.70
2023-03-20T11:35:08.462Z,4.80
2023-03-20T11:36:08.563Z,6.20
2023-03-20T11:37:10.961Z,5.70
2023-03-20T11:38:08.349Z,4.50
2023-03-20T11:39:08.311Z,4.60
2023-03-20T11:40:08.279Z,7.10
2023-03-20T11:41:08.258Z,3.70
2023-03-20T11:42:08.220Z,4.40
2023-03-20T11:43:08.205Z,5.20
2023-03-20T11:44:08.184Z,5.60
2023-03-20T11:45:08.148Z,8.20
2023-03-20T11:46:08.147Z,6.30
2023-03-20T11:47:08.096Z,8.60
2023-03-20T11:48:08.104Z,5.40
2023-03-20T11:49:08.096Z,7.30
2023-03-20T11:50:08.052Z,5.30
2023-03-20T11:51:07.996Z,6.90
2023-03-20T11:52:08.025Z,3.60
2023-03-20T11:53:07.915Z,6.50
2023-03-20T11:54:07.897Z,6.10
2023-03-20T11:55:07.901Z,5.60
2023-03-20T11:56:07.871Z,7.60
2023-03-20T11:57:07.814Z,7.50
2023-03-20T11:58:08.019Z,5.70
2023-03-20T11:59:07.808Z,5.20
2023-03-20T12:00:07.861Z,5.90
2023-03-20T12:01:07.717Z,5.90
2023-03-20T12:02:07.756Z,6.00
2023-03-20T12:03:07.763Z,9.00
2023-03-20T12:04:07.656Z,6.80
2023-03-20T12:05:07.624Z,7.80
2023-03-20T12:06:07.580Z,6.90
2023-03-20T12:07:07.639Z,8.00
2023-03-20T12:08:07.554Z,5.10
2023-03-20T12:09:07.506Z,6.50
2023-03-20T12:10:07.506Z,5.30
2023-03-20T12:11:07.460Z,5.40
2023-03-20T12:12:07.431Z,7.60
2023-03-20T12:13:07.459Z,8.50
2023-03-20T12:14:07.377Z,6.80
2023-03-20T12:15:07.364Z,7.20
2023-03-20T12:16:07.403Z,5.90
2023-03-20T12:17:07.302Z,7.60
2023-03-20T12:18:07.299Z,7.00
2023-03-20T12:19:07.367Z,9.20
2023-03-20T12:20:07.222Z,6.60
2023-03-20T12:21:07.202Z,7.30
2023-03-20T12:22:07.175Z,7.40
2023-03-20T12:23:07.128Z,6.10
2023-03-20T12:24:07.148Z,10.10
2023-03-20T12:25:07.105Z,6.20
2023-03-20T12:26:07.055Z,5.80
2023-03-20T12:27:07.031Z,8.70
2023-03-20T12:28:06.994Z,5.40
2023-03-20T12:29:06.977Z,8.50
2023-03-20T12:30:06.988Z,7.50
2023-03-20T12:31:06.981Z,6.50
2023-03-20T12:32:06.905Z,10.70
2023-03-20T12:33:06.982Z,6.40
2023-03-20T12:34:06.872Z,9.00
2023-03-20T12:35:06.899Z,5.80
2023-03-20T12:36:06.893Z,8.80
2023-03-20T12:37:06.764Z,7.40
2023-03-20T12:38:06.759Z,7.00
2023-03-20T12:39:06.745Z,8.30
2023-03-20T12:40:06.689Z,5.00
2023-03-20T12:41:06.669Z,6.10
2023-03-20T12:42:06.627Z,5.00
2023-03-20T12:43:06.589Z,7.30
2023-03-20T12:44:06.603Z,7.10
2023-03-20T12:45:06.657Z,6.50
2023-03-20T12:46:06.582Z,6.40
2023-03-20T12:47:06.475Z,5.00
2023-03-20T12:48:06.489Z,5.20
2023-03-20T12:49:06.442Z,7.40
2023-03-20T12:50:06.424Z,6.60
2023-03-20T12:51:06.387Z,4.80
2023-03-20T12:52:06.366Z,6.70
2023-03-20T12:53:06.341Z,4.90
2023-03-20T12:54:06.323Z,8.20
2023-03-20T12:55:06.298Z,7.10
2023-03-20T12:56:06.255Z,8.20
2023-03-20T12:57:06.221Z,7.70
2023-03-20T12:58:06.199Z,6.20
2023-03-20T12:59:06.176Z,4.50